Terminal Aerodrome Forecast
Issued by NWS Upton, NY

Home | Current Version | Previous Version | Text Only | Print | Product List | Glossary On
Versions: 1 2 3 4 5 6 7 8 9 10 11 12 13 14 15 16 17 18 19 20 21 22 23 24 25 26 27 28 29 30 31 32 33 34
000
FTUS41 KOKX 260400 CCA
TAFLGA
TAF COR
KLGA 260424Z 2604/2624 25014G20KT P6SM BKN050
      TEMPO 2604/2606 29017G25KT 6SM -SHRA
     FM260800 31014G22KT P6SM SCT050
     FM261500 31022G32KT P6SM BKN050
     FM262300 29016G26KT P6SM FEW050=

USA.gov is the U.S. government's official web portal to all federal, state and local government web resources and services.